Time;durP1;ratioP1;P1;durP2;ratioP2;P2;SDS_P1;SDS_P2;PMS_P1;PMS_P2;Temp;Humidity;BMP_temperature;BMP_pressure;BME280_temperature;BME280_humidity;BME280_pressure;Samples;Min_cycle;Max_cycle;Signal;HPM_P1;HPM_P2
2023/07/13 00:02:01;;;;;;;7.50;1.70;;;;;;;16.89;100.00;102203.22;4921927;29;20198;-83
2023/07/13 00:04:26;;;;;;;5.30;1.93;;;;;;;16.57;100.00;102237.31;4921902;29;20190;-86
2023/07/13 00:06:52;;;;;;;4.07;1.67;;;;;;;16.96;100.00;102349.59;4918222;29;20439;-84
2023/07/13 00:09:19;;;;;;;3.33;1.60;;;;;;;17.19;100.00;102329.41;4923022;29;20249;-82
2023/07/13 00:11:47;;;;;;;4.90;1.67;;;;;;;16.04;100.00;102118.88;4923201;29;20575;-82
2023/07/13 00:14:13;;;;;;;5.70;1.90;;;;;;;16.99;100.00;102294.97;4922913;29;20464;-83
2023/07/13 00:16:43;;;;;;;4.70;1.80;;;;;;;16.58;100.00;102249.81;4926244;29;20597;-82
2023/07/13 00:19:10;;;;;;;9.10;1.73;;;;;;;16.94;100.00;102336.22;4924428;29;20456;-81
2023/07/13 00:21:35;;;;;;;5.60;1.87;;;;;;;16.80;100.00;102342.66;4923784;29;20482;-84
2023/07/13 00:24:01;;;;;;;6.57;1.63;;;;;;;16.28;100.00;102268.25;4919594;29;20447;-81
2023/07/13 00:26:27;;;;;;;3.37;1.47;;;;;;;15.80;100.00;102178.94;4918909;29;20199;-80
2023/07/13 00:28:52;;;;;;;9.53;2.20;;;;;;;16.16;100.00;102277.97;4917852;29;20219;-86
2023/07/13 00:31:18;;;;;;;4.70;1.57;;;;;;;16.25;100.00;102301.13;4919058;29;20247;-81
2023/07/13 00:33:43;;;;;;;10.40;2.13;;;;;;;16.85;100.00;102391.66;4922675;29;20209;-86
2023/07/13 00:36:10;;;;;;;9.07;2.63;;;;;;;16.25;100.00;102325.50;4916616;29;20222;-84
2023/07/13 00:38:36;;;;;;;8.73;1.97;;;;;;;16.55;100.00;102384.81;4934468;29;20274;-84
2023/07/13 00:41:03;;;;;;;9.17;2.30;;;;;;;16.67;100.00;102430.09;4919258;29;20448;-81
2023/07/13 00:43:29;;;;;;;7.23;2.60;;;;;;;16.82;100.00;102419.16;4919026;29;20223;-84
2023/07/13 00:46:27;;;;;;;11.07;2.70;;;;;;;16.68;100.00;102434.47;4919270;29;20607;-85
2023/07/13 00:48:56;;;;;;;8.30;2.23;;;;;;;16.41;100.00;102493.09;4917341;29;20798;-86
2023/07/13 00:51:27;;;;;;;6.03;2.00;;;;;;;16.49;100.00;102536.28;4919641;29;20475;-86
2023/07/13 00:53:56;;;;;;;7.57;2.20;;;;;;;16.50;100.00;102546.06;4930879;29;20500;-83
2023/07/13 00:56:22;;;;;;;6.50;1.90;;;;;;;15.57;100.00;102401.81;4921217;29;20462;-85
2023/07/13 00:58:48;;;;;;;5.93;2.47;;;;;;;16.43;100.00;102545.19;4926693;29;20474;-87
2023/07/13 01:01:14;;;;;;;7.30;2.00;;;;;;;15.63;100.00;102407.47;4924131;29;20459;-89
2023/07/13 01:03:40;;;;;;;5.87;2.70;;;;;;;16.35;100.00;102547.19;4927143;29;20254;-83
2023/07/13 01:06:06;;;;;;;5.70;2.00;;;;;;;15.11;100.00;102377.84;4924842;29;20745;-85
2023/07/13 01:08:31;;;;;;;10.33;3.03;;;;;;;16.32;100.00;102561.97;4918404;29;20500;-85
2023/07/13 01:10:58;;;;;;;7.90;2.50;;;;;;;15.63;100.00;102477.78;4923788;29;21496;-85
2023/07/13 01:13:23;;;;;;;5.30;2.13;;;;;;;15.45;100.00;102462.84;4920492;29;20991;-85
2023/07/13 01:15:51;;;;;;;9.40;2.20;;;;;;;15.52;100.00;102466.44;4925896;29;20447;-85
2023/07/13 01:18:21;;;;;;;5.13;2.07;;;;;;;14.69;100.00;102324.56;4919733;29;20530;-82
2023/07/13 01:21:01;;;;;;;8.97;2.50;;;;;;;15.25;100.00;102491.53;4924599;29;20458;-86
2023/07/13 01:23:28;;;;;;;4.37;2.00;;;;;;;16.18;100.00;102581.81;4922017;29;20448;-89
2023/07/13 01:25:55;;;;;;;7.90;1.97;;;;;;;15.03;100.00;102355.50;4927392;29;20928;-85
2023/07/13 01:28:20;;;;;;;5.00;2.10;;;;;;;15.19;100.00;102422.84;4926209;29;21018;-82
2023/07/13 01:30:47;;;;;;;8.10;2.67;;;;;;;15.48;100.00;102480.56;4925704;29;20452;-85
2023/07/13 01:33:17;;;;;;;7.33;2.50;;;;;;;16.20;100.00;102582.44;4927121;29;20571;-84
2023/07/13 01:35:45;;;;;;;7.23;2.90;;;;;;;16.36;100.00;102589.47;4925664;29;20454;-86
2023/07/13 01:38:13;;;;;;;10.00;2.70;;;;;;;15.59;100.00;102477.31;4925359;29;20448;-83
2023/07/13 01:40:39;;;;;;;10.63;3.10;;;;;;;15.90;100.00;102541.97;4926115;29;20943;-84
2023/07/13 01:43:05;;;;;;;7.77;2.20;;;;;;;15.52;100.00;102503.47;4926884;29;20454;-83
2023/07/13 01:45:31;;;;;;;9.40;3.00;;;;;;;16.27;100.00;102622.09;4929278;29;20963;-86
2023/07/13 01:47:57;;;;;;;5.70;1.97;;;;;;;15.97;100.00;102566.44;4924373;29;20192;-85
2023/07/13 01:50:23;;;;;;;7.33;2.60;;;;;;;15.84;100.00;102579.81;4927244;29;20965;-86
2023/07/13 01:52:49;;;;;;;6.70;2.47;;;;;;;15.28;100.00;102491.13;4924848;29;20479;-83
2023/07/13 01:55:14;;;;;;;9.83;2.53;;;;;;;15.90;100.00;102557.38;4927410;29;20931;-81
2023/07/13 01:57:40;;;;;;;11.50;2.50;;;;;;;16.20;100.00;102617.66;4926811;29;20706;-83
2023/07/13 02:00:08;;;;;;;9.23;2.60;;;;;;;16.37;100.00;102653.44;4943215;28;20216;-83
2023/07/13 02:02:33;;;;;;;12.40;2.63;;;;;;;16.52;100.00;102653.38;4940911;28;20200;-83
2023/07/13 02:04:59;;;;;;;7.53;2.50;;;;;;;16.16;100.00;102625.31;4926286;29;20459;-85
2023/07/13 02:07:24;;;;;;;8.10;2.63;;;;;;;15.67;100.00;102558.34;4925614;29;20674;-85
2023/07/13 02:09:50;;;;;;;8.57;3.10;;;;;;;15.50;100.00;102560.44;4924421;29;20689;-87
2023/07/13 02:12:15;;;;;;;7.73;2.70;;;;;;;16.15;100.00;102675.09;4924592;29;20223;-86
2023/07/13 02:14:41;;;;;;;9.47;2.97;;;;;;;16.14;100.00;102649.06;4920688;29;20198;-84
2023/07/13 02:17:06;;;;;;;8.30;2.30;;;;;;;16.30;100.00;102688.56;4922070;29;20196;-84
2023/07/13 02:19:31;;;;;;;11.93;2.60;;;;;;;16.37;100.00;102694.06;4923389;29;20222;-83
2023/07/13 02:21:57;;;;;;;12.90;2.70;;;;;;;15.30;100.00;102537.72;4920590;29;20202;-86
2023/07/13 02:24:22;;;;;;;11.40;3.10;;;;;;;16.27;100.00;102694.38;4922710;29;20590;-86
2023/07/13 02:26:48;;;;;;;10.50;3.30;;;;;;;15.21;100.00;102517.22;4924958;29;20191;-83
2023/07/13 02:29:13;;;;;;;11.17;3.30;;;;;;;16.23;100.00;102674.16;4923792;29;20774;-84
2023/07/13 02:31:39;;;;;;;10.47;3.30;;;;;;;15.59;100.00;102566.56;4924069;29;20290;-84
2023/07/13 02:34:04;;;;;;;7.73;2.60;;;;;;;16.15;100.00;102639.06;4923045;29;20234;-84
2023/07/13 02:36:31;;;;;;;14.80;3.27;;;;;;;16.38;100.00;102674.91;4927156;29;20270;-83
2023/07/13 02:39:00;;;;;;;9.73;3.30;;;;;;;15.30;100.00;102529.63;4924697;29;20236;-86
2023/07/13 02:41:26;;;;;;;8.13;2.30;;;;;;;15.59;100.00;102562.03;4925883;29;20436;-85
2023/07/13 02:43:51;;;;;;;7.33;2.77;;;;;;;15.67;100.00;102558.34;4921510;29;20451;-82
2023/07/13 02:46:17;;;;;;;10.27;3.03;;;;;;;15.31;100.00;102536.72;4921524;29;21170;-84
2023/07/13 02:48:42;;;;;;;7.63;2.47;;;;;;;15.47;100.00;102544.59;4922247;29;20222;-88
2023/07/13 02:51:08;;;;;;;9.00;2.87;;;;;;;16.27;100.00;102670.84;4921080;29;20205;-84
2023/07/13 02:53:35;;;;;;;7.33;2.90;;;;;;;15.47;100.00;102559.97;4939784;28;20748;-83
2023/07/13 02:56:00;;;;;;;7.00;2.37;;;;;;;15.64;100.00;102526.28;4923509;29;20198;-87
2023/07/13 02:58:26;;;;;;;9.90;2.77;;;;;;;16.23;100.00;102669.56;4924299;29;20828;-86
2023/07/13 03:00:51;;;;;;;9.73;2.50;;;;;;;15.87;100.00;102606.47;4938795;29;20680;-85
2023/07/13 03:03:17;;;;;;;10.27;2.80;;;;;;;15.84;100.00;102617.69;4925147;29;20186;-82
2023/07/13 03:05:44;;;;;;;8.53;3.27;;;;;;;16.26;100.00;102677.31;4923165;29;20267;-84
2023/07/13 03:08:11;;;;;;;9.10;2.90;;;;;;;16.21;100.00;102674.31;4921025;29;20551;-81
2023/07/13 03:10:36;;;;;;;9.27;2.80;;;;;;;15.68;100.00;102565.50;4922279;29;20443;-83
2023/07/13 03:13:02;;;;;;;10.60;2.60;;;;;;;16.26;100.00;102655.63;4935107;29;20476;-86
2023/07/13 03:15:27;;;;;;;7.00;2.30;;;;;;;16.44;100.00;102654.34;4923565;29;20192;-84
2023/07/13 03:17:53;;;;;;;8.33;2.80;;;;;;;15.27;100.00;102476.75;4919754;29;20572;-81
2023/07/13 03:20:18;;;;;;;9.57;2.83;;;;;;;16.12;100.00;102617.78;4932305;28;20216;-83
2023/07/13 03:22:44;;;;;;;11.00;3.07;;;;;;;16.33;100.00;102663.81;4919397;29;20203;-82
2023/07/13 03:25:10;;;;;;;10.90;2.90;;;;;;;16.35;100.00;102660.94;4921443;29;20333;-86
2023/07/13 03:27:36;;;;;;;5.93;2.00;;;;;;;15.80;100.00;102588.31;4918308;29;20641;-86
2023/07/13 03:30:02;;;;;;;8.53;2.70;;;;;;;16.01;100.00;102611.84;4921036;29;20478;-85
2023/07/13 03:32:28;;;;;;;7.00;2.93;;;;;;;16.12;100.00;102639.44;4922527;29;20575;-83
2023/07/13 03:34:53;;;;;;;6.63;2.40;;;;;;;16.04;100.00;102629.56;4920231;29;20452;-84
2023/07/13 03:37:18;;;;;;;10.00;2.93;;;;;;;15.43;100.00;102545.19;4921821;29;20191;-86
2023/07/13 03:39:44;;;;;;;8.03;3.03;;;;;;;16.12;100.00;102664.66;4922383;29;20227;-87
2023/07/13 03:42:09;;;;;;;8.67;3.37;;;;;;;16.13;100.00;102636.53;4921774;29;20199;-85
2023/07/13 03:44:35;;;;;;;11.80;3.20;;;;;;;15.52;100.00;102561.09;4921815;28;20254;-89
2023/07/13 03:47:01;;;;;;;10.80;3.17;;;;;;;14.80;100.00;102469.09;4919868;29;20752;-83
2023/07/13 03:49:26;;;;;;;9.00;2.77;;;;;;;16.07;100.00;102645.44;4935046;28;20216;-84
2023/07/13 03:51:51;;;;;;;11.50;2.83;;;;;;;15.20;100.00;102500.19;4920821;29;20794;-85
2023/07/13 03:54:17;;;;;;;9.10;3.10;;;;;;;16.11;100.00;102643.16;4920525;29;20199;-84
2023/07/13 03:56:42;;;;;;;10.37;4.00;;;;;;;16.25;100.00;102642.28;4918936;29;20199;-82
2023/07/13 03:59:08;;;;;;;8.90;2.80;;;;;;;15.73;100.00;102597.38;4919381;29;20250;-83
2023/07/13 04:01:34;;;;;;;8.00;2.83;;;;;;;15.05;100.00;102492.09;4921695;29;20668;-84
2023/07/13 04:03:59;;;;;;;7.20;2.20;;;;;;;15.17;100.00;102488.91;4919160;29;20563;-83
2023/07/13 04:06:29;;;;;;;8.57;2.47;;;;;;;16.18;100.00;102641.38;4923348;29;20665;-86
2023/07/13 04:08:58;;;;;;;14.83;3.37;;;;;;;15.86;100.00;102619.19;4917597;29;20211;-83
2023/07/13 04:11:27;;;;;;;7.80;2.57;;;;;;;16.04;100.00;102626.88;4934476;29;21039;-83
2023/07/13 04:13:53;;;;;;;6.30;2.40;;;;;;;15.95;100.00;102617.19;4920019;29;20519;-82
2023/07/13 04:16:19;;;;;;;13.53;3.27;;;;;;;15.79;100.00;102607.41;4919090;29;20439;-85
2023/07/13 04:18:45;;;;;;;6.23;2.23;;;;;;;16.02;100.00;102635.16;4920645;29;20227;-83
2023/07/13 04:21:12;;;;;;;15.50;3.60;;;;;;;16.23;100.00;102652.47;4920859;29;20932;-86
2023/07/13 04:23:38;;;;;;;11.60;2.30;;;;;;;16.12;100.00;102634.88;4917495;29;20455;-86
2023/07/13 04:26:04;;;;;;;8.00;2.30;;;;;;;16.15;100.00;102648.03;4920427;29;20941;-83
2023/07/13 04:28:30;;;;;;;7.03;2.37;;;;;;;15.87;100.00;102591.06;4918650;29;20525;-85
2023/07/13 04:30:55;;;;;;;12.00;2.70;;;;;;;16.42;100.00;102651.00;4920928;29;20446;-81
2023/07/13 04:33:22;;;;;;;8.10;2.40;;;;;;;16.21;100.00;102614.75;4918777;29;20562;-86
2023/07/13 04:35:49;;;;;;;7.37;2.50;;;;;;;15.56;100.00;102510.16;4919595;29;20191;-85
2023/07/13 04:38:15;;;;;;;14.47;3.57;;;;;;;16.54;100.00;102641.31;4918639;29;20448;-84
2023/07/13 04:40:45;;;;;;;12.00;3.50;;;;;;;16.42;100.00;102641.00;4915403;29;20444;-83
2023/07/13 04:43:10;;;;;;;12.40;3.10;;;;;;;15.90;100.00;102547.41;4918405;29;20454;-84
2023/07/13 04:45:36;;;;;;;12.40;3.63;;;;;;;16.19;100.00;102624.09;4918368;29;20443;-86
2023/07/13 04:48:02;;;;;;;12.37;2.90;;;;;;;16.43;100.00;102656.22;4919777;29;20216;-86
2023/07/13 04:50:28;;;;;;;11.23;2.90;;;;;;;16.31;100.00;102611.72;4923275;29;20933;-86
2023/07/13 04:52:53;;;;;;;14.43;3.70;;;;;;;16.44;100.00;102601.03;4917507;29;20467;-84
2023/07/13 04:55:20;;;;;;;11.70;3.30;;;;;;;15.28;100.00;102456.00;4913089;29;20200;-85
2023/07/13 04:57:46;;;;;;;10.33;2.80;;;;;;;16.32;100.00;102628.81;4916572;29;20188;-86
2023/07/13 05:00:13;;;;;;;13.73;3.50;;;;;;;16.10;100.00;102603.59;4922241;29;21023;-86
2023/07/13 05:02:39;;;;;;;13.90;3.77;;;;;;;15.75;100.00;102562.84;4923386;29;20519;-85
2023/07/13 05:05:05;;;;;;;11.50;3.23;;;;;;;15.93;100.00;102571.38;4926916;29;20547;-87
2023/07/13 05:07:32;;;;;;;7.60;2.93;;;;;;;16.07;100.00;102594.00;4941485;29;20608;-88
2023/07/13 05:09:59;;;;;;;11.87;3.20;;;;;;;15.94;100.00;102555.97;4923810;29;20444;-85
2023/07/13 05:12:24;;;;;;;10.80;3.10;;;;;;;16.11;100.00;102579.03;4923199;29;20474;-84
2023/07/13 05:14:50;;;;;;;13.20;3.50;;;;;;;16.32;100.00;102567.38;4942020;29;20432;-84
2023/07/13 05:17:16;;;;;;;11.63;3.17;;;;;;;16.48;100.00;102626.66;4922352;29;20584;-83
2023/07/13 05:19:41;;;;;;;12.63;4.70;;;;;;;16.03;100.00;102542.13;4922914;29;20207;-84
2023/07/13 05:22:06;;;;;;;12.13;3.57;;;;;;;15.79;100.00;102505.47;4920443;29;20700;-87
2023/07/13 05:24:32;;;;;;;12.67;2.80;;;;;;;16.63;100.00;102623.03;4920736;29;20185;-85
2023/07/13 05:26:57;;;;;;;12.80;3.83;;;;;;;16.69;100.00;102630.38;4936455;29;20192;-86
2023/07/13 05:29:23;;;;;;;8.53;3.80;;;;;;;15.87;100.00;102539.66;4921472;29;20204;-88
2023/07/13 05:31:49;;;;;;;12.60;3.23;;;;;;;16.31;100.00;102606.31;4922594;29;20268;-86
2023/07/13 05:34:14;;;;;;;12.13;3.80;;;;;;;15.89;100.00;102567.38;4937603;29;20697;-86
2023/07/13 05:36:40;;;;;;;10.77;4.00;;;;;;;16.44;100.00;102633.53;4918488;29;20448;-86
2023/07/13 05:39:06;;;;;;;11.63;3.67;;;;;;;15.51;100.00;102470.19;4922362;29;20715;-79
2023/07/13 05:41:31;;;;;;;16.63;4.23;;;;;;;15.52;100.00;102479.97;4922223;29;20510;-88
2023/07/13 05:43:57;;;;;;;10.87;3.00;;;;;;;16.67;100.00;102643.31;4925649;29;20211;-88
2023/07/13 05:46:22;;;;;;;11.83;3.47;;;;;;;16.38;100.00;102596.38;4942608;28;20195;-87
2023/07/13 05:48:48;;;;;;;13.03;3.87;;;;;;;15.47;100.00;102484.28;4941021;28;20204;-87
2023/07/13 05:51:13;;;;;;;7.30;3.03;;;;;;;16.17;100.00;102559.34;4926286;29;20188;-85
2023/07/13 05:53:39;;;;;;;14.13;4.07;;;;;;;16.31;100.00;102589.22;4926619;29;20220;-79
2023/07/13 05:56:04;;;;;;;10.60;3.23;;;;;;;16.47;100.00;102587.09;4925718;29;20219;-81
2023/07/13 05:58:30;;;;;;;8.97;2.77;;;;;;;16.14;100.00;102520.97;4925606;29;21105;-83
2023/07/13 06:01:04;;;;;;;15.03;3.03;;;;;;;16.89;100.00;102636.84;4925545;29;21100;-89
2023/07/13 06:03:30;;;;;;;17.73;3.77;;;;;;;15.94;100.00;102481.06;4925485;29;20557;-84
2023/07/13 06:05:56;;;;;;;11.40;2.80;;;;;;;16.13;100.00;102505.75;4925804;29;20438;-84
2023/07/13 06:08:21;;;;;;;10.03;3.07;;;;;;;16.67;100.00;102572.88;4923815;29;20298;-85
2023/07/13 06:10:47;;;;;;;9.60;3.60;;;;;;;17.02;100.00;102621.72;4925589;29;20184;-86
2023/07/13 06:13:12;;;;;;;10.63;3.20;;;;;;;16.91;100.00;102623.94;4924305;29;20208;-86
2023/07/13 06:15:38;;;;;;;10.00;3.47;;;;;;;17.15;100.00;102619.94;4926468;29;21000;-83
2023/07/13 06:18:03;;;;;;;16.30;3.53;;;;;;;16.97;100.00;102576.22;4924873;29;20184;-86
2023/07/13 06:20:29;;;;;;;9.70;2.60;;;;;;;17.14;100.00;102618.25;4925049;29;20224;-86
2023/07/13 06:22:55;;;;;;;7.73;2.83;;;;;;;16.17;100.00;102444.78;4917979;29;20279;-88
2023/07/13 06:25:20;;;;;;;9.63;3.17;;;;;;;17.33;100.00;102605.00;4923918;29;20522;-86
2023/07/13 06:27:46;;;;;;;8.20;2.90;;;;;;;16.81;100.00;102552.16;4939867;29;20196;-87
2023/07/13 06:30:12;;;;;;;7.90;3.07;;;;;;;16.51;100.00;102465.63;4923087;29;20207;-86
2023/07/13 06:32:37;;;;;;;8.85;2.90;;;;;;;16.86;100.00;102512.56;4922160;29;20220;-83
2023/07/13 06:35:03;;;;;;;10.43;2.97;;;;;;;17.49;100.00;102571.28;4922055;29;20187;-83
2023/07/13 06:37:29;;;;;;;10.93;3.67;;;;;;;17.54;100.00;102583.19;4922692;29;20184;-85
2023/07/13 06:39:54;;;;;;;12.73;3.90;;;;;;;17.23;100.00;102572.81;4937768;28;20463;-87
2023/07/13 06:42:20;;;;;;;10.60;2.80;;;;;;;17.45;100.00;102589.84;4917342;29;20196;-85
2023/07/13 06:44:45;;;;;;;7.37;2.87;;;;;;;17.47;100.00;102592.31;4920930;29;20189;-87
2023/07/13 06:47:11;;;;;;;11.30;3.07;;;;;;;17.40;100.00;102568.72;4921961;29;20191;-86
2023/07/13 06:49:36;;;;;;;8.87;2.70;;;;;;;16.68;100.00;102407.38;4921775;29;20732;-86
2023/07/13 06:52:02;;;;;;;9.90;2.60;;;;;;;17.38;100.00;102513.00;4922805;29;20706;-87
2023/07/13 06:54:27;;;;;;;9.10;3.00;;;;;;;16.99;100.00;102451.34;4919062;28;20607;-82
2023/07/13 06:56:53;;;;;;;13.30;2.70;;;;;;;16.64;100.00;102362.78;4918046;29;20214;-87
2023/07/13 06:59:19;;;;;;;6.05;2.40;;;;;;;18.04;100.00;102524.03;4920583;29;20207;-81
2023/07/13 07:01:44;;;;;;;9.50;2.60;;;;;;;17.84;100.00;102452.59;4923213;29;20193;-85
2023/07/13 07:04:10;;;;;;;7.77;2.47;;;;;;;17.35;100.00;102335.25;4920475;29;20487;-86
2023/07/13 07:06:35;;;;;;;7.93;2.40;;;;;;;17.90;100.00;102340.47;4921706;29;20279;-84
2023/07/13 07:09:01;;;;;;;9.63;3.10;;;;;;;17.14;100.00;102208.00;4921304;29;20227;-86
2023/07/13 07:11:26;;;;;;;5.53;2.07;;;;;;;18.20;100.00;102335.41;4921639;29;20230;-82
2023/07/13 07:13:53;;;;;;;8.43;2.43;;;;;;;17.77;100.00;102210.22;4921078;29;20735;-86
2023/07/13 07:16:19;;;;;;;6.07;1.83;;;;;;;18.01;100.00;102209.53;4922895;29;20192;-85
2023/07/13 07:18:45;;;;;;;10.87;2.47;;;;;;;18.43;100.00;102236.28;4921585;29;20523;-86
2023/07/13 07:21:12;;;;;;;5.73;2.07;;;;;;;18.56;100.00;102228.06;4923763;29;20433;-83
2023/07/13 07:23:37;;;;;;;3.60;1.40;;;;;;;17.33;100.00;102030.91;4920330;29;21066;-82
2023/07/13 07:26:03;;;;;;;3.30;1.37;;;;;;;17.20;100.00;101965.03;4921945;29;20522;-81
2023/07/13 07:28:29;;;;;;;6.00;1.47;;;;;;;18.42;100.00;102110.47;4923161;29;20212;-83
2023/07/13 07:30:56;;;;;;;6.87;2.10;;;;;;;18.42;100.00;102104.22;4926932;29;20191;-83
2023/07/13 07:33:22;;;;;;;6.03;1.73;;;;;;;18.16;100.00;102072.66;4924060;29;20533;-80
2023/07/13 07:35:48;;;;;;;4.83;1.83;;;;;;;17.70;100.00;101984.16;4923445;29;20428;-79
2023/07/13 07:38:14;;;;;;;5.47;1.50;;;;;;;18.65;100.00;102130.78;4923668;29;20945;-82
2023/07/13 07:40:40;;;;;;;5.60;1.50;;;;;;;18.28;100.00;102025.56;4921516;29;20559;-84
2023/07/13 07:43:07;;;;;;;4.73;1.67;;;;;;;17.47;100.00;101857.25;4923908;29;20191;-84
2023/07/13 07:45:32;;;;;;;5.60;1.30;;;;;;;18.03;100.00;101905.25;4935532;28;20447;-84
2023/07/13 07:47:59;;;;;;;3.40;1.40;;;;;;;18.79;100.00;101993.75;4922092;29;20478;-83
2023/07/13 07:50:25;;;;;;;3.67;1.73;;;;;;;18.00;100.00;101835.97;4923089;29;20226;-82
2023/07/13 07:52:51;;;;;;;5.20;1.70;;;;;;;18.04;100.00;101792.91;4924042;29;20884;-84
2023/07/13 07:55:16;;;;;;;4.10;1.63;;;;;;;18.37;100.00;101830.56;4919035;29;20494;-83
2023/07/13 07:57:42;;;;;;;3.50;1.20;;;;;;;18.85;100.00;101907.75;4921338;29;20202;-83
2023/07/13 08:00:08;;;;;;;5.00;1.40;;;;;;;18.50;100.00;101848.56;4921333;29;20234;-80
2023/07/13 08:02:33;;;;;;;6.07;1.50;;;;;;;19.04;100.00;101884.94;4921550;29;20210;-82
2023/07/13 08:04:59;;;;;;;8.57;2.00;;;;;;;17.95;100.00;101729.09;4922111;29;20913;-82
2023/07/13 08:07:24;;;;;;;3.27;1.20;;;;;;;18.73;100.00;101798.97;4920848;29;20188;-78
2023/07/13 08:09:53;;;;;;;5.50;1.80;;;;;;;18.43;100.00;101676.72;4922580;29;20744;-79
2023/07/13 08:12:19;;;;;;;5.40;1.57;;;;;;;18.44;100.00;101565.09;4919631;29;20226;-81
2023/07/13 08:14:45;;;;;;;6.70;1.67;;;;;;;19.05;100.00;101579.34;4922867;29;20544;-78
2023/07/13 08:17:10;;;;;;;3.27;1.40;;;;;;;19.14;100.00;101520.00;4921591;29;20199;-80
2023/07/13 08:19:35;;;;;;;7.87;1.43;;;;;;;18.85;100.00;101430.22;4921999;29;20215;-83
2023/07/13 08:22:01;;;;;;;4.90;1.30;;;;;;;19.04;100.00;101378.41;4921921;29;20184;-82
2023/07/13 08:24:26;;;;;;;3.93;1.30;;;;;;;19.80;100.00;101480.53;4923080;29;20629;-80
2023/07/13 08:26:52;;;;;;;5.40;1.60;;;;;;;18.67;100.00;101348.81;4922842;29;20187;-83
2023/07/13 08:29:18;;;;;;;6.80;1.63;;;;;;;19.15;100.00;101448.22;4921506;29;20578;-83
2023/07/13 08:31:43;;;;;;;4.27;1.63;;;;;;;19.37;100.00;101461.97;4913898;29;20221;-80
2023/07/13 08:34:09;;;;;;;6.70;1.53;;;;;;;18.95;100.00;101358.94;4934512;28;20800;-80
2023/07/13 08:36:34;;;;;;;4.80;1.70;;;;;;;19.14;100.00;101393.00;4918585;29;20196;-85
2023/07/13 08:39:00;;;;;;;3.83;1.53;;;;;;;19.52;100.00;101423.34;4916973;29;20212;-88
2023/07/13 08:41:26;;;;;;;4.40;1.60;;;;;;;19.15;100.00;101329.41;4922756;29;20563;-82
2023/07/13 08:43:56;;;;;;;5.30;1.80;;;;;;;19.93;100.00;101410.50;4919657;29;20201;-87
2023/07/13 08:46:38;;;;;;;2.77;1.00;;;;;;;19.10;100.00;101253.19;4916717;29;20451;-82
2023/07/13 08:49:16;;;;;;;3.40;1.40;;;;;;;19.91;100.00;101394.41;4917717;29;20482;-82
2023/07/13 08:51:53;;;;;;;4.93;1.40;;;;;;;19.46;100.00;101340.81;4922900;29;20523;-81
2023/07/13 08:54:28;;;;;;;4.30;1.43;;;;;;;19.19;100.00;101302.56;4919493;29;20447;-80
2023/07/13 08:56:54;;;;;;;4.30;1.60;;;;;;;18.54;100.00;101276.56;4919016;29;20454;-86
2023/07/13 08:59:25;;;;;;;6.23;2.00;;;;;;;19.29;100.00;101465.09;4921574;29;20463;-87
2023/07/13 09:02:11;;;;;;;3.37;1.63;;;;;;;19.16;100.00;101469.75;4918785;29;20431;-84
2023/07/13 09:04:45;;;;;;;7.53;2.10;;;;;;;18.92;100.00;101485.28;4924444;29;20448;-85
2023/07/13 09:07:35;;;;;;;4.13;1.70;;;;;;;19.04;100.00;101492.59;4920079;29;20498;-86
2023/07/13 09:10:28;;;;;;;6.00;1.93;;;;;;;18.16;100.00;101362.09;4919992;29;26039;-90
2023/07/13 09:12:59;;;;;;;5.50;1.70;;;;;;;19.19;100.00;101501.06;4920832;29;20486;-82
2023/07/13 09:15:35;;;;;;;3.50;1.63;;;;;;;18.91;100.00;101469.19;4917550;29;21118;-86
2023/07/13 09:18:24;;;;;;;5.43;1.73;;;;;;;19.22;100.00;101486.16;4917994;29;20522;-82
2023/07/13 09:20:58;;;;;;;3.40;1.30;;;;;;;19.19;100.00;101436.63;4925733;29;20518;-82
2023/07/13 09:23:29;;;;;;;5.77;1.63;;;;;;;19.52;100.00;101472.34;4921836;29;21116;-85
2023/07/13 09:26:02;;;;;;;5.30;1.53;;;;;;;19.79;100.00;101443.50;4926320;29;21316;-83
2023/07/13 09:28:34;;;;;;;3.20;1.13;;;;;;;19.72;100.00;101431.91;4922134;29;20472;-82
2023/07/13 09:31:13;;;;;;;3.20;1.50;;;;;;;19.20;100.00;101366.75;4925859;29;20944;-82
2023/07/13 09:33:39;;;;;;;4.37;1.47;;;;;;;19.70;100.00;101446.84;4918508;29;20483;-82
2023/07/13 09:36:22;;;;;;;3.10;1.20;;;;;;;19.28;100.00;101420.75;4924283;29;20505;-81
2023/07/13 09:38:53;;;;;;;3.53;1.23;;;;;;;19.54;100.00;101465.59;4926451;29;20216;-79
2023/07/13 09:41:29;;;;;;;1.47;1.10;;;;;;;19.38;100.00;101415.50;4938220;28;20463;-85
2023/07/13 09:44:02;;;;;;;4.30;1.37;;;;;;;19.47;100.00;101393.34;4922077;29;20873;-82
2023/07/13 09:46:27;;;;;;;6.60;2.57;;;;;;;19.10;100.00;101320.34;4922894;29;20459;-83
2023/07/13 09:48:52;;;;;;;4.67;1.70;;;;;;;19.99;100.00;101423.97;4923868;29;21000;-82
2023/07/13 09:51:18;;;;;;;4.43;1.60;;;;;;;19.84;100.00;101393.72;4924295;29;20656;-83
2023/07/13 09:53:44;;;;;;;4.70;1.60;;;;;;;19.44;100.00;101332.09;4922592;29;20220;-81
2023/07/13 09:56:37;;;;;;;2.40;1.03;;;;;;;19.46;100.00;101386.25;4922403;29;20203;-82
2023/07/13 09:59:03;;;;;;;4.47;1.80;;;;;;;19.60;100.00;101436.56;4925417;29;20474;-83
2023/07/13 10:01:38;;;;;;;4.60;1.60;;;;;;;17.58;100.00;101347.41;4924162;29;20829;-88
2023/07/13 10:04:16;;;;;;;2.80;1.20;;;;;;;19.01;100.00;101569.19;4927211;29;20210;-87
2023/07/13 10:06:42;;;;;;;12.73;2.37;;;;;;;18.52;100.00;101496.84;4937390;29;20450;-87
2023/07/13 10:09:09;;;;;;;4.07;1.20;;;;;;;18.11;100.00;101443.44;4924384;29;21006;-84
2023/07/13 10:11:37;;;;;;;5.10;2.00;;;;;;;18.84;100.00;101552.78;4918405;29;20932;-84
2023/07/13 10:14:12;;;;;;;3.10;1.23;;;;;;;18.45;100.00;101506.97;4917535;29;20444;-89
2023/07/13 10:16:39;;;;;;;3.70;1.70;;;;;;;18.55;100.00;101520.00;4920773;29;20530;-89
2023/07/13 10:19:20;;;;;;;3.30;1.70;;;;;;;18.83;100.00;101521.19;4918593;29;20510;-86
2023/07/13 10:21:59;;;;;;;3.03;1.43;;;;;;;18.55;100.00;101552.59;4922487;29;20446;-87
2023/07/13 10:24:27;;;;;;;3.57;1.63;;;;;;;18.00;100.00;101560.97;4923299;29;20936;-89
2023/07/13 10:27:15;;;;;;;5.10;2.00;;;;;;;18.04;100.00;101651.72;4926499;29;20471;-75
2023/07/13 10:29:46;;;;;;;3.27;1.60;;;;;;;18.05;100.00;101935.72;4937306;28;20843;-80
2023/07/13 10:32:13;;;;;;;3.40;1.70;;;;;;;17.72;100.00;101987.50;4925028;29;21014;-80
2023/07/13 10:34:40;;;;;;;3.20;1.20;;;;;;;17.58;100.00;101982.16;4923094;29;20444;-83
2023/07/13 10:37:16;;;;;;;3.83;1.40;;;;;;;16.48;100.00;101956.88;4926462;29;20436;-86
2023/07/13 10:39:41;;;;;;;4.60;1.30;;;;;;;17.02;100.00;102093.97;4924464;29;20459;-87
2023/07/13 10:42:15;;;;;;;2.60;1.27;;;;;;;16.41;100.00;101999.41;4931045;29;21607;-77
2023/07/13 10:44:40;;;;;;;3.93;1.20;;;;;;;15.44;100.00;102142.09;4924434;29;20295;-86
2023/07/13 10:47:13;;;;;;;1.90;1.00;;;;;;;16.41;100.00;102289.97;4922098;29;20452;-83
2023/07/13 10:49:41;;;;;;;3.93;1.47;;;;;;;15.19;100.00;102417.44;4920247;29;20211;-89
2023/07/13 10:52:43;;;;;;;6.27;1.30;;;;;;;15.78;100.00;102676.94;4936478;29;20479;-88
2023/07/13 10:55:32;;;;;;;4.90;1.70;;;;;;;16.11;100.00;102654.00;4921447;29;20455;-81
2023/07/13 10:58:13;;;;;;;6.97;2.30;;;;;;;16.41;100.00;102689.94;4921948;29;20435;-88
2023/07/13 11:01:03;;;;;;;8.93;2.40;;;;;;;15.77;100.00;102663.59;4935546;29;20456;-89
2023/07/13 11:03:32;;;;;;;5.70;1.67;;;;;;;16.20;100.00;102712.41;4927997;29;20667;-93
2023/07/13 11:06:18;;;;;;;3.53;1.57;;;;;;;16.22;100.00;102697.66;4940406;29;20455;-92
2023/07/13 11:08:47;;;;;;;4.07;1.37;;;;;;;16.79;100.00;102697.84;4928622;29;20461;-93
2023/07/13 11:11:27;;;;;;;4.90;1.90;;;;;;;16.73;100.00;102684.00;4925998;29;20452;-92
2023/07/13 11:13:53;;;;;;;2.87;1.57;;;;;;;16.48;100.00;102688.13;4928704;29;20471;-90
2023/07/13 11:16:24;;;;;;;5.17;1.80;;;;;;;16.58;100.00;102693.25;4923718;29;20475;-96
2023/07/13 11:19:03;;;;;;;4.23;1.47;;;;;;;16.46;100.00;102701.88;4926298;29;20208;-92